createdAt,value
2023-01-23T00:01:23.515Z,98332.50
2023-01-23T00:03:50.208Z,98334.94
2023-01-23T00:06:18.201Z,98338.31
2023-01-23T00:08:46.084Z,98336.34
2023-01-23T00:11:19.086Z,98341.75
2023-01-23T00:13:46.139Z,98339.13
2023-01-23T00:16:18.836Z,98343.50
2023-01-23T00:18:46.189Z,98348.63
2023-01-23T00:21:15.561Z,98347.81
2023-01-23T00:23:44.452Z,98347.97
2023-01-23T00:26:15.658Z,98350.63
2023-01-23T00:28:43.775Z,98348.97
2023-01-23T00:31:13.148Z,98354.31
2023-01-23T00:33:44.384Z,98353.50
2023-01-23T00:36:12.290Z,98351.72
2023-01-23T00:38:39.153Z,98347.25
2023-01-23T00:41:06.165Z,98355.97
2023-01-23T00:43:33.584Z,98359.59
2023-01-23T00:46:00.326Z,98357.88
2023-01-23T00:48:27.102Z,98360.41
2023-01-23T00:50:53.847Z,98349.00
2023-01-23T00:53:21.273Z,98357.59
2023-01-23T00:55:48.022Z,98352.50
2023-01-23T00:58:14.666Z,98352.53
2023-01-23T01:00:42.020Z,98355.25
2023-01-23T01:03:08.975Z,98356.22
2023-01-23T01:05:35.875Z,98361.47
2023-01-23T01:08:02.810Z,98358.03
2023-01-23T01:10:30.539Z,98364.25
2023-01-23T01:12:59.051Z,98368.78
2023-01-23T01:15:26.227Z,98369.78
2023-01-23T01:17:56.271Z,98380.31
2023-01-23T01:20:25.981Z,98384.69
2023-01-23T01:22:53.950Z,98380.41
2023-01-23T01:25:20.711Z,98376.94
2023-01-23T01:27:47.384Z,98383.13
2023-01-23T01:30:15.044Z,98375.28
2023-01-23T01:32:42.898Z,98378.78
2023-01-23T01:35:10.390Z,98384.06
2023-01-23T01:37:38.702Z,98389.34
2023-01-23T01:40:08.042Z,98386.78
2023-01-23T01:42:57.264Z,98387.63
2023-01-23T01:46:15.234Z,98393.69
2023-01-23T01:48:50.142Z,98394.41
2023-01-23T01:51:24.628Z,98392.59
2023-01-23T01:54:00.721Z,98394.41
2023-01-23T01:56:29.405Z,98400.50
2023-01-23T01:58:58.675Z,98397.06
2023-01-23T02:01:26.679Z,98396.38
2023-01-23T02:03:55.080Z,98396.41
2023-01-23T02:06:21.852Z,98395.56
2023-01-23T02:09:02.117Z,98393.84
2023-01-23T02:11:28.949Z,98399.94
2023-01-23T02:13:57.134Z,98399.88
2023-01-23T02:16:29.692Z,98392.13
2023-01-23T02:19:02.195Z,98406.97
2023-01-23T02:21:29.703Z,98400.75
2023-01-23T02:24:25.219Z,98404.13
2023-01-23T02:26:51.964Z,98405.78
2023-01-23T02:29:20.376Z,98398.59
2023-01-23T02:31:47.434Z,98404.00
2023-01-23T02:34:14.754Z,98408.38
2023-01-23T02:36:45.362Z,98411.94
2023-01-23T02:39:18.200Z,98405.75
2023-01-23T02:41:47.476Z,98399.56
2023-01-23T02:44:19.016Z,98409.25
2023-01-23T02:46:45.762Z,98408.25
2023-01-23T02:49:13.148Z,98399.38
2023-01-23T02:51:39.838Z,98401.03
2023-01-23T02:54:06.589Z,98398.31
2023-01-23T02:56:34.048Z,98415.63
2023-01-23T02:59:19.266Z,98411.22
2023-01-23T03:01:46.157Z,98412.13
2023-01-23T03:04:12.912Z,98411.31
2023-01-23T03:06:39.618Z,98405.22
2023-01-23T03:09:09.766Z,98417.50
2023-01-23T03:11:39.024Z,98408.84
2023-01-23T03:14:08.159Z,98405.41
2023-01-23T03:16:37.946Z,98402.72
2023-01-23T03:19:09.036Z,98413.28
2023-01-23T03:21:40.168Z,98412.44
2023-01-23T03:24:09.504Z,98416.78
2023-01-23T03:26:40.049Z,98418.69
2023-01-23T03:29:25.863Z,98419.59
2023-01-23T03:31:52.899Z,98428.44
2023-01-23T03:34:22.243Z,98424.22
2023-01-23T03:36:48.904Z,98431.22
2023-01-23T03:39:33.942Z,98425.09
2023-01-23T03:42:00.691Z,98439.13
2023-01-23T03:44:27.351Z,98440.03
2023-01-23T03:46:53.969Z,98441.69
2023-01-23T03:49:20.956Z,98443.38
2023-01-23T03:51:47.698Z,98434.72
2023-01-23T03:54:14.938Z,98434.72
2023-01-23T03:56:42.790Z,98445.16
2023-01-23T03:59:09.806Z,98431.16
2023-01-23T04:01:37.145Z,98438.19
2023-01-23T04:04:03.982Z,98440.03
2023-01-23T04:06:31.141Z,98440.81
2023-01-23T04:11:57.952Z,98440.78
2023-01-23T04:14:26.091Z,98443.41
2023-01-23T04:16:54.090Z,98446.03
2023-01-23T04:19:20.964Z,98450.44
2023-01-23T04:21:49.185Z,98448.75
2023-01-23T04:24:17.173Z,98456.63
2023-01-23T04:26:43.911Z,98453.16
2023-01-23T04:29:10.622Z,98461.09
2023-01-23T04:31:37.408Z,98464.66
2023-01-23T04:34:04.267Z,98466.41
2023-01-23T04:36:31.030Z,98463.84
2023-01-23T04:38:58.678Z,98464.78
2023-01-23T04:41:27.944Z,98453.53
2023-01-23T04:43:54.613Z,98456.25
2023-01-23T04:46:21.422Z,98456.38
2023-01-23T04:48:51.188Z,98461.66
2023-01-23T04:51:17.916Z,98463.41
2023-01-23T04:53:44.497Z,98469.59
2023-01-23T04:56:11.063Z,98472.25
2023-01-23T04:58:37.725Z,98477.59
2023-01-23T05:01:06.236Z,98476.75
2023-01-23T05:03:33.352Z,98475.94
2023-01-23T05:05:59.997Z,98476.88
2023-01-23T05:08:26.650Z,98480.34
2023-01-23T05:10:53.244Z,98486.53
2023-01-23T05:13:19.979Z,98486.59
2023-01-23T05:15:46.587Z,98484.88
2023-01-23T05:18:13.300Z,98495.25
2023-01-23T05:20:39.991Z,98496.16
2023-01-23T05:23:06.619Z,98506.69
2023-01-23T05:25:33.311Z,98497.09
2023-01-23T05:28:00.015Z,98506.78
2023-01-23T05:30:26.701Z,98499.84
2023-01-23T05:32:53.337Z,98505.91
2023-01-23T05:35:20.577Z,98502.44
2023-01-23T05:37:52.261Z,98508.56
2023-01-23T05:40:20.648Z,98513.81
2023-01-23T05:42:48.114Z,98518.16
2023-01-23T05:45:14.986Z,98512.94
2023-01-23T05:47:42.216Z,98519.94
2023-01-23T05:50:13.873Z,98523.41
2023-01-23T05:52:40.823Z,98527.72
2023-01-23T05:55:07.886Z,98533.00
2023-01-23T05:57:35.046Z,98532.16
2023-01-23T06:00:01.650Z,98529.50
2023-01-23T06:02:28.424Z,98526.09
2023-01-23T06:04:55.910Z,98533.94
2023-01-23T06:07:22.570Z,98540.06
2023-01-23T06:09:49.150Z,98533.13
2023-01-23T06:12:15.802Z,98536.59
2023-01-23T06:14:42.450Z,98538.34
2023-01-23T06:17:11.545Z,98543.56
2023-01-23T06:19:38.188Z,98540.06
2023-01-23T06:22:04.788Z,98550.53
2023-01-23T06:24:31.513Z,98549.66
2023-01-23T06:26:58.186Z,98553.16
2023-01-23T06:29:24.988Z,98561.00
2023-01-23T06:31:51.687Z,98556.63
2023-01-23T06:34:18.335Z,98557.50
2023-01-23T06:36:46.281Z,98553.13
2023-01-23T06:39:15.279Z,98558.41
2023-01-23T06:41:43.079Z,98565.38
2023-01-23T06:44:09.820Z,98556.59
2023-01-23T06:46:36.667Z,98561.75
2023-01-23T06:49:06.210Z,98553.00
2023-01-23T06:51:33.915Z,98562.63
2023-01-23T06:54:00.868Z,98553.03
2023-01-23T06:56:27.569Z,98563.47
2023-01-23T06:58:54.211Z,98560.81
2023-01-23T07:01:21.015Z,98560.81
2023-01-23T07:03:47.903Z,98560.75
2023-01-23T07:06:15.601Z,98565.13
2023-01-23T07:08:43.836Z,98572.97
2023-01-23T07:11:11.098Z,98570.31
2023-01-23T07:13:38.126Z,98568.56
2023-01-23T07:16:05.698Z,98572.88
2023-01-23T07:18:33.336Z,98566.75
2023-01-23T07:21:00.979Z,98565.81
2023-01-23T07:23:27.814Z,98564.91
2023-01-23T07:26:03.565Z,98567.41
2023-01-23T07:28:30.636Z,98564.72
2023-01-23T07:30:59.241Z,98568.16
2023-01-23T07:33:25.975Z,98568.03
2023-01-23T07:35:52.725Z,98574.00
2023-01-23T07:38:19.523Z,98575.78
2023-01-23T07:40:47.015Z,98586.28
2023-01-23T07:43:25.721Z,98583.59
2023-01-23T07:45:52.745Z,98580.97
2023-01-23T07:48:19.404Z,98586.13
2023-01-23T07:50:46.223Z,98583.34
2023-01-23T07:53:26.210Z,98584.13
2023-01-23T07:55:55.992Z,98581.34
2023-01-23T07:58:23.660Z,98597.78
2023-01-23T08:01:11.479Z,98587.16
2023-01-23T08:03:38.622Z,98587.78
2023-01-23T08:06:05.550Z,98582.47
2023-01-23T08:08:32.173Z,98584.00
2023-01-23T08:11:01.898Z,98579.56
2023-01-23T08:13:41.358Z,98583.75
2023-01-23T08:16:08.376Z,98588.97
2023-01-23T08:19:08.472Z,98585.47
2023-01-23T08:21:45.726Z,98583.53
2023-01-23T08:24:13.537Z,98585.16
2023-01-23T08:26:41.902Z,98578.88
2023-01-23T08:29:08.591Z,98577.88
2023-01-23T08:31:43.586Z,98574.47
2023-01-23T08:34:10.397Z,98575.16
2023-01-23T08:36:47.312Z,98572.34
2023-01-23T08:39:14.109Z,98571.38
2023-01-23T08:41:40.875Z,98574.81
2023-01-23T08:44:13.729Z,98575.63
2023-01-23T08:46:45.840Z,98578.16
2023-01-23T08:49:12.930Z,98571.84
2023-01-23T08:51:40.276Z,98570.03
2023-01-23T08:54:07.084Z,98569.84
2023-01-23T08:56:33.737Z,98566.22
2023-01-23T08:59:00.399Z,98560.72
2023-01-23T09:01:27.243Z,98562.28
2023-01-23T09:03:55.364Z,98558.69
2023-01-23T09:06:22.975Z,98554.16
2023-01-23T09:08:50.044Z,98542.22
2023-01-23T09:11:17.644Z,98547.25
2023-01-23T09:13:46.194Z,98546.13
2023-01-23T09:16:15.988Z,98538.38
2023-01-23T09:18:45.692Z,98544.16
2023-01-23T09:21:22.754Z,98541.44
2023-01-23T09:23:49.761Z,98547.81
2023-01-23T09:26:17.641Z,98542.38
2023-01-23T09:28:52.167Z,98541.50
2023-01-23T09:31:21.084Z,98535.53
2023-01-23T09:33:48.544Z,98534.47
2023-01-23T09:36:15.184Z,98528.88
2023-01-23T09:38:41.972Z,98526.53
2023-01-23T09:41:21.553Z,98530.41
2023-01-23T09:43:52.028Z,98532.38
2023-01-23T09:46:41.816Z,98527.53
2023-01-23T09:49:24.465Z,98530.88
2023-01-23T09:52:02.051Z,98534.06
2023-01-23T09:54:43.378Z,98523.41
2023-01-23T09:57:24.785Z,98524.94
2023-01-23T10:00:00.352Z,98524.97
2023-01-23T10:02:27.829Z,98524.84
2023-01-23T10:04:56.635Z,98529.66
2023-01-23T10:07:51.802Z,98518.75
2023-01-23T10:10:46.268Z,98526.53
2023-01-23T10:13:16.701Z,98518.47
2023-01-23T10:15:53.827Z,98525.44
2023-01-23T10:18:36.125Z,98512.06
2023-01-23T10:21:35.189Z,98512.50
2023-01-23T10:24:53.241Z,98512.56
2023-01-23T10:27:23.014Z,98513.38
2023-01-23T10:30:00.861Z,98510.69
2023-01-23T10:32:30.178Z,98511.41
2023-01-23T10:35:19.253Z,98518.50
2023-01-23T10:37:53.269Z,98506.06
2023-01-23T10:40:42.305Z,98505.41
2023-01-23T10:43:20.046Z,98511.16
2023-01-23T10:45:48.458Z,98504.94
2023-01-23T10:48:41.205Z,98503.06
2023-01-23T10:51:38.693Z,98509.53
2023-01-23T10:54:11.293Z,98503.34
2023-01-23T10:56:47.995Z,98486.56
2023-01-23T10:59:48.713Z,98485.75
2023-01-23T11:02:15.962Z,98484.25
2023-01-23T11:04:44.565Z,98489.25
2023-01-23T11:07:23.249Z,98473.53
2023-01-23T11:10:02.061Z,98468.47
2023-01-23T11:12:33.305Z,98469.63
2023-01-23T11:15:22.602Z,98464.44
2023-01-23T11:17:54.747Z,98463.41
2023-01-23T11:20:39.997Z,98459.25
2023-01-23T11:23:06.538Z,98456.09
2023-01-23T11:25:36.200Z,98464.72
2023-01-23T11:28:16.994Z,98460.63
2023-01-23T11:30:47.792Z,98453.03
2023-01-23T11:33:19.271Z,98459.53
2023-01-23T11:35:51.173Z,98447.97
2023-01-23T11:38:30.230Z,98448.28
2023-01-23T11:40:57.555Z,98441.09
2023-01-23T11:43:24.085Z,98442.03
2023-01-23T11:46:18.911Z,98441.31
2023-01-23T11:49:17.528Z,98445.84
2023-01-23T11:51:53.076Z,98438.84
2023-01-23T11:54:34.484Z,98448.94
2023-01-23T11:57:00.962Z,98442.44
2023-01-23T11:59:36.595Z,98451.47
2023-01-23T12:02:12.403Z,98444.03
2023-01-23T12:04:44.881Z,98449.81
2023-01-23T12:07:21.476Z,98450.16
2023-01-23T12:10:06.753Z,98444.19
2023-01-23T12:12:33.224Z,98448.91
2023-01-23T12:15:05.510Z,98444.19
2023-01-23T12:17:38.389Z,98450.31
2023-01-23T12:20:05.225Z,98450.19
2023-01-23T12:22:40.355Z,98450.84
2023-01-23T12:25:25.523Z,98456.97
2023-01-23T12:27:58.010Z,98462.00
2023-01-23T12:30:48.127Z,98466.25
2023-01-23T12:33:33.075Z,98465.00
2023-01-23T12:36:05.711Z,98464.94
2023-01-23T12:38:40.876Z,98470.22
2023-01-23T12:41:15.126Z,98466.72
2023-01-23T12:43:55.521Z,98465.28
2023-01-23T12:46:32.153Z,98458.22
2023-01-23T12:49:02.733Z,98471.78
2023-01-23T12:51:40.016Z,98466.34
2023-01-23T12:54:15.586Z,98470.66
2023-01-23T12:56:42.933Z,98470.41
2023-01-23T12:59:30.525Z,98464.63
2023-01-23T13:02:16.088Z,98464.47
2023-01-23T13:05:02.957Z,98464.03
2023-01-23T13:07:46.316Z,98468.09
2023-01-23T13:10:58.269Z,98468.75
2023-01-23T13:13:26.863Z,98475.75
2023-01-23T13:16:19.973Z,98473.19
2023-01-23T13:19:39.948Z,98473.56
2023-01-23T13:22:31.404Z,98471.31
2023-01-23T13:25:13.150Z,98475.16
2023-01-23T13:28:00.073Z,98479.78
2023-01-23T13:30:32.110Z,98478.09
2023-01-23T13:33:04.010Z,98471.44
2023-01-23T13:38:37.681Z,98482.22
2023-01-23T13:41:19.860Z,98486.78
2023-01-23T13:43:49.470Z,98481.78
2023-01-23T14:22:10.495Z,98525.28
2023-01-23T14:25:05.478Z,98517.56
2023-01-23T14:27:53.339Z,98522.91
2023-01-23T14:30:33.846Z,98531.41
2023-01-23T14:33:03.479Z,98528.44
2023-01-23T14:35:40.809Z,98529.50
2023-01-23T14:38:08.284Z,98532.88
2023-01-23T14:40:49.059Z,98530.41
2023-01-23T14:43:35.955Z,98532.25
2023-01-23T14:46:14.086Z,98532.31
2023-01-23T14:48:44.670Z,98538.00
2023-01-23T14:51:25.843Z,98537.44
2023-01-23T14:54:22.955Z,98533.94
2023-01-23T14:56:51.272Z,98536.81
2023-01-23T14:59:42.976Z,98547.66
2023-01-23T15:02:31.754Z,98542.97
2023-01-23T15:08:21.484Z,98548.22
2023-01-23T15:11:02.037Z,98558.91
2023-01-23T15:13:50.764Z,98564.59
2023-01-23T15:16:54.657Z,98560.50
2023-01-23T15:19:33.382Z,98566.84
2023-01-23T15:22:20.303Z,98556.47
2023-01-23T15:24:47.035Z,98560.97
2023-01-23T15:27:34.661Z,98558.53
2023-01-23T15:30:32.322Z,98563.13
2023-01-23T15:33:07.368Z,98566.78
2023-01-23T15:35:35.675Z,98570.53
2023-01-23T15:38:08.678Z,98566.25
2023-01-23T15:40:38.452Z,98571.44
2023-01-23T15:43:11.767Z,98567.25
2023-01-23T15:45:38.711Z,98574.38
2023-01-23T15:48:06.739Z,98571.00
2023-01-23T15:50:35.679Z,98578.16
2023-01-23T15:53:02.824Z,98580.84
2023-01-23T15:55:30.077Z,98573.94
2023-01-23T15:57:56.924Z,98581.09
2023-01-23T16:00:27.299Z,98575.03
2023-01-23T16:02:57.265Z,98586.50
2023-01-23T16:05:33.380Z,98589.28
2023-01-23T16:08:04.714Z,98589.31
2023-01-23T16:10:36.560Z,98589.31
2023-01-23T16:13:03.909Z,98592.03
2023-01-23T16:15:35.684Z,98593.00
2023-01-23T16:18:04.754Z,98593.09
2023-01-23T16:20:38.772Z,98594.84
2023-01-23T16:23:20.763Z,98587.94
2023-01-23T16:25:48.218Z,98596.66
2023-01-23T16:28:17.712Z,98600.28
2023-01-23T16:30:46.097Z,98590.66
2023-01-23T16:33:13.036Z,98594.25
2023-01-23T16:35:40.644Z,98602.09
2023-01-23T16:38:07.789Z,98597.84
2023-01-23T16:40:38.385Z,98596.97
2023-01-23T16:43:05.119Z,98603.16
2023-01-23T16:45:46.327Z,98610.19
2023-01-23T16:48:21.670Z,98606.75
2023-01-23T16:51:02.876Z,98612.03
2023-01-23T16:53:42.635Z,98611.16
2023-01-23T16:57:18.558Z,98610.31
2023-01-23T16:59:46.526Z,98612.13
2023-01-23T17:02:25.374Z,98612.16
2023-01-23T17:04:51.996Z,98610.44
2023-01-23T17:07:20.622Z,98604.31
2023-01-23T17:09:47.777Z,98615.69
2023-01-23T17:15:57.631Z,98617.56
2023-01-23T17:19:05.845Z,98607.97
2023-01-23T17:21:34.589Z,98613.22
2023-01-23T17:24:28.876Z,98614.13
2023-01-23T17:27:04.974Z,98616.84
2023-01-23T17:29:48.600Z,98611.63
2023-01-23T17:32:59.912Z,98615.97
2023-01-23T17:38:20.345Z,98619.47
2023-01-23T17:40:47.658Z,98616.84
2023-01-23T17:43:15.636Z,98617.75
2023-01-23T17:46:28.811Z,98612.53
2023-01-23T17:49:07.140Z,98606.44
2023-01-23T17:51:37.077Z,98604.72
2023-01-23T17:54:03.934Z,98609.97
2023-01-23T17:56:51.390Z,98617.81
2023-01-23T17:59:18.085Z,98609.13
2023-01-23T18:01:44.903Z,98611.75
2023-01-23T18:07:10.925Z,98610.03
2023-01-23T18:09:42.897Z,98619.59
2023-01-23T18:12:19.923Z,98631.81
2023-01-23T18:15:01.637Z,98628.31
2023-01-23T18:17:59.551Z,98630.94
2023-01-23T18:20:28.685Z,98632.69
2023-01-23T18:26:22.677Z,98635.25
2023-01-23T18:29:30.370Z,98636.16
2023-01-23T18:32:28.859Z,98641.34
2023-01-23T18:35:11.076Z,98639.59
2023-01-23T18:38:12.721Z,98640.50
2023-01-23T18:40:55.557Z,98641.34
2023-01-23T18:43:35.769Z,98647.44
2023-01-23T18:46:02.821Z,98650.03
2023-01-23T18:48:29.960Z,98648.28
2023-01-23T18:51:29.414Z,98641.31
2023-01-23T18:54:33.376Z,98643.06
2023-01-23T18:57:18.733Z,98651.75
2023-01-23T18:59:57.397Z,98653.44
2023-01-23T19:02:59.611Z,98656.03
2023-01-23T19:05:34.283Z,98655.13
2023-01-23T19:08:06.992Z,98660.34
2023-01-23T19:10:48.847Z,98659.47
2023-01-23T19:13:21.169Z,98669.91
2023-01-23T19:16:06.001Z,98660.31
2023-01-23T19:18:56.380Z,98670.72
2023-01-23T19:21:28.553Z,98672.44
2023-01-23T19:24:01.503Z,98681.09
2023-01-23T19:26:33.300Z,98683.69
2023-01-23T19:29:19.165Z,98684.53
2023-01-23T19:32:03.058Z,98685.34
2023-01-23T19:34:31.487Z,98687.97
2023-01-23T19:36:58.195Z,98689.63
2023-01-23T19:39:24.852Z,98687.78
2023-01-23T19:41:53.749Z,98687.78
2023-01-23T19:44:24.181Z,98678.28
2023-01-23T19:46:51.982Z,98686.13
2023-01-23T19:49:18.878Z,98684.38
2023-01-23T19:51:45.959Z,98680.91
2023-01-23T19:54:14.618Z,98686.09
2023-01-23T19:56:42.433Z,98684.31
2023-01-23T19:59:09.606Z,98686.00
2023-01-23T20:01:45.697Z,98695.44
2023-01-23T20:04:16.063Z,98692.84
2023-01-23T20:06:45.400Z,98693.69
2023-01-23T20:09:14.723Z,98697.09
2023-01-23T20:11:42.317Z,98705.72
2023-01-23T20:14:09.036Z,98704.81
2023-01-23T20:16:40.256Z,98699.66
2023-01-23T20:19:14.770Z,98716.09
2023-01-23T20:21:41.714Z,98715.22
2023-01-23T20:24:08.592Z,98718.69
2023-01-23T20:26:35.410Z,98715.16
2023-01-23T20:29:02.150Z,98716.88
2023-01-23T20:31:29.128Z,98712.59
2023-01-23T20:33:55.834Z,98716.81
2023-01-23T20:36:22.556Z,98726.16
2023-01-23T20:38:49.344Z,98733.06
2023-01-23T20:41:22.026Z,98732.91
2023-01-23T20:43:49.136Z,98732.09
2023-01-23T20:46:16.912Z,98734.59
2023-01-23T20:48:44.983Z,98740.75
2023-01-23T20:51:13.457Z,98738.03
2023-01-23T20:53:40.619Z,98746.63
2023-01-23T20:56:09.105Z,98754.41
2023-01-23T20:58:56.453Z,98750.72
2023-01-23T21:01:25.906Z,98754.13
2023-01-23T21:03:52.757Z,98762.69
2023-01-23T21:06:19.812Z,98762.72
2023-01-23T21:08:47.129Z,98755.84
2023-01-23T21:11:19.679Z,98757.63
2023-01-23T21:13:54.642Z,98758.44
2023-01-23T21:16:21.480Z,98755.06
2023-01-23T21:18:48.415Z,98762.00
2023-01-23T21:21:17.735Z,98764.44
2023-01-23T21:23:48.886Z,98775.31
2023-01-23T21:26:22.351Z,98779.56
2023-01-23T21:28:50.033Z,98783.13
2023-01-23T21:31:23.305Z,98782.97
2023-01-23T21:33:50.464Z,98785.44
2023-01-23T21:36:21.382Z,98790.50
2023-01-23T21:38:51.234Z,98784.34
2023-01-23T21:41:18.604Z,98790.50
2023-01-23T21:43:45.341Z,98791.28
2023-01-23T21:46:12.133Z,98778.34
2023-01-23T21:48:38.854Z,98786.13
2023-01-23T21:51:15.164Z,98789.41
2023-01-23T21:53:44.690Z,98779.81
2023-01-23T21:56:12.594Z,98783.31
2023-01-23T21:58:39.515Z,98777.31
2023-01-23T22:01:29.398Z,98780.78
2023-01-23T22:03:56.165Z,98778.28
2023-01-23T22:06:22.958Z,98776.50
2023-01-23T22:08:49.654Z,98771.31
2023-01-23T22:11:16.247Z,98773.84
2023-01-23T22:13:42.965Z,98775.69
2023-01-23T22:16:09.724Z,98777.25
2023-01-23T22:18:36.417Z,98775.31
2023-01-23T22:21:04.792Z,98766.66
2023-01-23T22:23:31.756Z,98769.97
2023-01-23T22:26:01.605Z,98762.03
2023-01-23T22:28:28.439Z,98769.88
2023-01-23T22:30:55.940Z,98762.94
2023-01-23T22:33:24.003Z,98773.34
2023-01-23T22:35:52.325Z,98769.13
2023-01-23T22:38:18.958Z,98769.25
2023-01-23T22:40:45.589Z,98776.06
2023-01-23T22:43:12.218Z,98774.34
2023-01-23T22:45:38.968Z,98780.31
2023-01-23T22:48:05.977Z,98774.94
2023-01-23T22:50:32.677Z,98781.06
2023-01-23T22:52:59.298Z,98772.41
2023-01-23T22:55:26.042Z,98774.19
2023-01-23T22:57:53.356Z,98780.91
2023-01-23T23:00:20.400Z,98778.16
2023-01-23T23:02:47.311Z,98780.94
2023-01-23T23:05:14.396Z,98779.25
2023-01-23T23:07:41.113Z,98776.63
2023-01-23T23:10:11.223Z,98785.00
2023-01-23T23:12:37.871Z,98784.69
2023-01-23T23:15:05.001Z,98776.81
2023-01-23T23:17:31.624Z,98776.91
2023-01-23T23:19:58.297Z,98781.28
2023-01-23T23:22:25.057Z,98776.09
2023-01-23T23:24:51.640Z,98782.75
2023-01-23T23:27:18.267Z,98781.56
2023-01-23T23:29:44.862Z,98784.16
2023-01-23T23:32:11.574Z,98776.44
2023-01-23T23:34:38.217Z,98774.84
2023-01-23T23:37:04.874Z,98774.19
2023-01-23T23:39:31.609Z,98770.59
2023-01-23T23:41:58.699Z,98773.84
2023-01-23T23:44:25.367Z,98766.06
2023-01-23T23:46:52.040Z,98767.88
2023-01-23T23:49:18.686Z,98773.13
2023-01-23T23:51:45.259Z,98769.47
2023-01-23T23:54:12.018Z,98771.06
2023-01-23T23:56:38.747Z,98778.81
2023-01-23T23:59:05.392Z,98775.28
